sensor_id;sensor_type;location;lat;lon;timestamp;P1;durP1;ratioP1;P2;durP2;ratioP2
26082;SDS011;13848;49.018;12.078;2023-02-24T00:00:20;22.00;;;12.82;;
26082;SDS011;13848;49.018;12.078;2023-02-24T00:02:48;20.98;;;12.98;;
26082;SDS011;13848;49.018;12.078;2023-02-24T00:05:14;19.05;;;11.70;;
26082;SDS011;13848;49.018;12.078;2023-02-24T00:07:40;16.55;;;11.68;;
26082;SDS011;13848;49.018;12.078;2023-02-24T00:10:06;21.10;;;12.80;;
26082;SDS011;13848;49.018;12.078;2023-02-24T00:12:33;21.30;;;12.88;;
26082;SDS011;13848;49.018;12.078;2023-02-24T00:14:59;21.42;;;13.52;;
26082;SDS011;13848;49.018;12.078;2023-02-24T00:17:25;21.58;;;13.55;;
26082;SDS011;13848;49.018;12.078;2023-02-24T00:19:53;23.20;;;12.65;;
26082;SDS011;13848;49.018;12.078;2023-02-24T00:22:19;19.30;;;12.00;;
26082;SDS011;13848;49.018;12.078;2023-02-24T00:24:45;24.92;;;14.25;;
26082;SDS011;13848;49.018;12.078;2023-02-24T00:27:11;23.30;;;14.30;;
26082;SDS011;13848;49.018;12.078;2023-02-24T00:29:37;27.60;;;14.20;;
26082;SDS011;13848;49.018;12.078;2023-02-24T00:32:04;29.98;;;14.30;;
26082;SDS011;13848;49.018;12.078;2023-02-24T00:34:31;24.20;;;13.10;;
26082;SDS011;13848;49.018;12.078;2023-02-24T00:37:00;28.63;;;15.15;;
26082;SDS011;13848;49.018;12.078;2023-02-24T00:39:27;23.55;;;13.48;;
26082;SDS011;13848;49.018;12.078;2023-02-24T00:41:54;26.98;;;13.85;;
26082;SDS011;13848;49.018;12.078;2023-02-24T00:44:20;22.90;;;13.32;;
26082;SDS011;13848;49.018;12.078;2023-02-24T00:46:46;18.33;;;11.07;;
26082;SDS011;13848;49.018;12.078;2023-02-24T00:49:13;23.42;;;13.25;;
26082;SDS011;13848;49.018;12.078;2023-02-24T00:51:42;21.42;;;11.90;;
26082;SDS011;13848;49.018;12.078;2023-02-24T00:54:10;21.90;;;13.18;;
26082;SDS011;13848;49.018;12.078;2023-02-24T00:56:36;22.00;;;12.95;;
26082;SDS011;13848;49.018;12.078;2023-02-24T00:59:02;19.38;;;12.00;;
26082;SDS011;13848;49.018;12.078;2023-02-24T01:01:29;20.15;;;12.73;;
26082;SDS011;13848;49.018;12.078;2023-02-24T01:03:57;17.77;;;11.77;;
26082;SDS011;13848;49.018;12.078;2023-02-24T01:06:25;18.15;;;12.07;;
26082;SDS011;13848;49.018;12.078;2023-02-24T01:08:52;19.42;;;11.75;;
26082;SDS011;13848;49.018;12.078;2023-02-24T01:11:21;18.67;;;11.70;;
26082;SDS011;13848;49.018;12.078;2023-02-24T01:13:48;19.15;;;12.45;;
26082;SDS011;13848;49.018;12.078;2023-02-24T01:16:14;17.67;;;11.82;;
26082;SDS011;13848;49.018;12.078;2023-02-24T01:18:40;22.50;;;12.55;;
26082;SDS011;13848;49.018;12.078;2023-02-24T01:21:06;18.85;;;12.10;;
26082;SDS011;13848;49.018;12.078;2023-02-24T01:23:32;22.33;;;12.75;;
26082;SDS011;13848;49.018;12.078;2023-02-24T01:25:58;23.20;;;13.73;;
26082;SDS011;13848;49.018;12.078;2023-02-24T01:28:25;22.45;;;12.82;;
26082;SDS011;13848;49.018;12.078;2023-02-24T01:30:51;22.42;;;12.60;;
26082;SDS011;13848;49.018;12.078;2023-02-24T01:33:17;24.52;;;12.23;;
26082;SDS011;13848;49.018;12.078;2023-02-24T01:35:43;23.65;;;12.77;;
26082;SDS011;13848;49.018;12.078;2023-02-24T01:38:09;18.98;;;12.05;;
26082;SDS011;13848;49.018;12.078;2023-02-24T01:40:35;20.17;;;11.23;;
26082;SDS011;13848;49.018;12.078;2023-02-24T01:43:02;21.63;;;11.80;;
26082;SDS011;13848;49.018;12.078;2023-02-24T01:45:29;21.85;;;11.80;;
26082;SDS011;13848;49.018;12.078;2023-02-24T01:47:59;20.25;;;11.77;;
26082;SDS011;13848;49.018;12.078;2023-02-24T01:50:27;20.60;;;11.55;;
26082;SDS011;13848;49.018;12.078;2023-02-24T01:52:54;22.25;;;12.40;;
26082;SDS011;13848;49.018;12.078;2023-02-24T01:55:26;20.17;;;12.13;;
26082;SDS011;13848;49.018;12.078;2023-02-24T01:57:57;20.38;;;13.15;;
26082;SDS011;13848;49.018;12.078;2023-02-24T02:00:24;19.85;;;11.60;;
26082;SDS011;13848;49.018;12.078;2023-02-24T02:02:53;19.42;;;11.68;;
26082;SDS011;13848;49.018;12.078;2023-02-24T02:05:22;19.13;;;11.65;;
26082;SDS011;13848;49.018;12.078;2023-02-24T02:07:48;20.38;;;12.30;;
26082;SDS011;13848;49.018;12.078;2023-02-24T02:10:15;19.38;;;12.13;;
26082;SDS011;13848;49.018;12.078;2023-02-24T02:12:41;19.33;;;11.27;;
26082;SDS011;13848;49.018;12.078;2023-02-24T02:15:09;20.85;;;12.20;;
26082;SDS011;13848;49.018;12.078;2023-02-24T02:17:37;19.45;;;12.13;;
26082;SDS011;13848;49.018;12.078;2023-02-24T02:20:13;18.90;;;12.25;;
26082;SDS011;13848;49.018;12.078;2023-02-24T02:23:12;23.33;;;12.07;;
26082;SDS011;13848;49.018;12.078;2023-02-24T02:26:09;18.20;;;11.38;;
26082;SDS011;13848;49.018;12.078;2023-02-24T02:28:55;20.33;;;12.50;;
26082;SDS011;13848;49.018;12.078;2023-02-24T02:34:38;20.58;;;12.02;;
26082;SDS011;13848;49.018;12.078;2023-02-24T02:37:11;19.10;;;12.10;;
26082;SDS011;13848;49.018;12.078;2023-02-24T02:39:42;20.77;;;12.77;;
26082;SDS011;13848;49.018;12.078;2023-02-24T02:42:17;19.90;;;11.52;;
26082;SDS011;13848;49.018;12.078;2023-02-24T02:44:52;19.60;;;12.93;;
26082;SDS011;13848;49.018;12.078;2023-02-24T02:47:24;19.90;;;11.85;;
26082;SDS011;13848;49.018;12.078;2023-02-24T02:49:58;18.75;;;11.63;;
26082;SDS011;13848;49.018;12.078;2023-02-24T02:52:31;23.05;;;12.50;;
26082;SDS011;13848;49.018;12.078;2023-02-24T02:55:04;18.98;;;12.45;;
26082;SDS011;13848;49.018;12.078;2023-02-24T02:57:34;20.50;;;12.35;;
26082;SDS011;13848;49.018;12.078;2023-02-24T03:00:04;18.80;;;12.05;;
26082;SDS011;13848;49.018;12.078;2023-02-24T03:02:34;23.13;;;12.10;;
26082;SDS011;13848;49.018;12.078;2023-02-24T03:05:04;19.60;;;11.85;;
26082;SDS011;13848;49.018;12.078;2023-02-24T03:07:35;18.85;;;12.18;;
26082;SDS011;13848;49.018;12.078;2023-02-24T03:10:05;25.08;;;12.32;;
26082;SDS011;13848;49.018;12.078;2023-02-24T03:12:34;19.65;;;12.05;;
26082;SDS011;13848;49.018;12.078;2023-02-24T03:15:03;19.90;;;11.57;;
26082;SDS011;13848;49.018;12.078;2023-02-24T03:17:34;18.92;;;11.90;;
26082;SDS011;13848;49.018;12.078;2023-02-24T03:20:08;18.27;;;11.10;;
26082;SDS011;13848;49.018;12.078;2023-02-24T03:22:38;15.45;;;10.93;;
26082;SDS011;13848;49.018;12.078;2023-02-24T03:25:07;20.35;;;12.20;;
26082;SDS011;13848;49.018;12.078;2023-02-24T03:27:34;18.27;;;10.98;;
26082;SDS011;13848;49.018;12.078;2023-02-24T03:30:08;17.88;;;10.57;;
26082;SDS011;13848;49.018;12.078;2023-02-24T03:32:40;16.63;;;10.68;;
26082;SDS011;13848;49.018;12.078;2023-02-24T03:35:15;19.02;;;10.73;;
26082;SDS011;13848;49.018;12.078;2023-02-24T03:37:45;18.38;;;11.32;;
26082;SDS011;13848;49.018;12.078;2023-02-24T03:40:11;18.88;;;11.38;;
26082;SDS011;13848;49.018;12.078;2023-02-24T03:42:38;21.15;;;10.93;;
26082;SDS011;13848;49.018;12.078;2023-02-24T03:45:07;21.20;;;11.02;;
26082;SDS011;13848;49.018;12.078;2023-02-24T03:47:33;18.77;;;10.95;;
26082;SDS011;13848;49.018;12.078;2023-02-24T03:49:59;17.17;;;11.00;;
26082;SDS011;13848;49.018;12.078;2023-02-24T03:52:29;17.85;;;10.82;;
26082;SDS011;13848;49.018;12.078;2023-02-24T03:55:11;15.98;;;10.25;;
26082;SDS011;13848;49.018;12.078;2023-02-24T03:57:51;21.13;;;10.65;;
26082;SDS011;13848;49.018;12.078;2023-02-24T04:00:27;16.25;;;10.55;;
26082;SDS011;13848;49.018;12.078;2023-02-24T04:03:01;17.90;;;10.85;;
26082;SDS011;13848;49.018;12.078;2023-02-24T04:05:34;18.60;;;10.50;;
26082;SDS011;13848;49.018;12.078;2023-02-24T04:08:09;18.98;;;11.20;;
26082;SDS011;13848;49.018;12.078;2023-02-24T04:10:36;21.10;;;11.27;;
26082;SDS011;13848;49.018;12.078;2023-02-24T04:13:07;16.90;;;10.32;;
26082;SDS011;13848;49.018;12.078;2023-02-24T04:15:38;19.08;;;11.05;;
26082;SDS011;13848;49.018;12.078;2023-02-24T04:18:08;18.13;;;10.77;;
26082;SDS011;13848;49.018;12.078;2023-02-24T04:20:39;20.02;;;11.00;;
26082;SDS011;13848;49.018;12.078;2023-02-24T04:23:07;17.77;;;9.68;;
26082;SDS011;13848;49.018;12.078;2023-02-24T04:25:39;16.20;;;10.60;;
26082;SDS011;13848;49.018;12.078;2023-02-24T04:28:09;19.27;;;9.98;;
26082;SDS011;13848;49.018;12.078;2023-02-24T04:30:37;17.25;;;10.30;;
26082;SDS011;13848;49.018;12.078;2023-02-24T04:33:05;17.92;;;10.93;;
26082;SDS011;13848;49.018;12.078;2023-02-24T04:35:32;18.80;;;10.77;;
26082;SDS011;13848;49.018;12.078;2023-02-24T04:37:58;16.83;;;10.25;;
26082;SDS011;13848;49.018;12.078;2023-02-24T04:40:26;18.92;;;10.73;;
26082;SDS011;13848;49.018;12.078;2023-02-24T04:42:52;17.52;;;10.63;;
26082;SDS011;13848;49.018;12.078;2023-02-24T04:45:19;15.02;;;10.50;;
26082;SDS011;13848;49.018;12.078;2023-02-24T04:47:47;19.48;;;10.27;;
26082;SDS011;13848;49.018;12.078;2023-02-24T04:50:14;15.75;;;10.55;;
26082;SDS011;13848;49.018;12.078;2023-02-24T04:52:41;19.40;;;10.55;;
26082;SDS011;13848;49.018;12.078;2023-02-24T04:55:08;17.42;;;10.50;;
26082;SDS011;13848;49.018;12.078;2023-02-24T04:57:36;18.60;;;10.07;;
26082;SDS011;13848;49.018;12.078;2023-02-24T05:00:02;18.95;;;10.40;;
26082;SDS011;13848;49.018;12.078;2023-02-24T05:02:29;19.58;;;9.77;;
26082;SDS011;13848;49.018;12.078;2023-02-24T05:04:55;14.95;;;10.00;;
26082;SDS011;13848;49.018;12.078;2023-02-24T05:07:21;16.58;;;9.95;;
26082;SDS011;13848;49.018;12.078;2023-02-24T05:09:47;17.55;;;11.02;;
26082;SDS011;13848;49.018;12.078;2023-02-24T05:12:13;22.15;;;10.75;;
26082;SDS011;13848;49.018;12.078;2023-02-24T05:14:41;17.17;;;10.32;;
26082;SDS011;13848;49.018;12.078;2023-02-24T05:17:07;17.77;;;10.00;;
26082;SDS011;13848;49.018;12.078;2023-02-24T05:19:33;17.42;;;10.00;;
26082;SDS011;13848;49.018;12.078;2023-02-24T05:21:59;18.85;;;10.35;;
26082;SDS011;13848;49.018;12.078;2023-02-24T05:24:25;23.65;;;10.90;;
26082;SDS011;13848;49.018;12.078;2023-02-24T05:26:51;17.58;;;10.27;;
26082;SDS011;13848;49.018;12.078;2023-02-24T05:29:17;22.23;;;12.07;;
26082;SDS011;13848;49.018;12.078;2023-02-24T05:31:45;24.27;;;12.73;;
26082;SDS011;13848;49.018;12.078;2023-02-24T05:34:11;22.05;;;12.43;;
26082;SDS011;13848;49.018;12.078;2023-02-24T05:36:37;24.95;;;12.73;;
26082;SDS011;13848;49.018;12.078;2023-02-24T05:39:05;26.02;;;13.93;;
26082;SDS011;13848;49.018;12.078;2023-02-24T05:41:32;27.65;;;13.90;;
26082;SDS011;13848;49.018;12.078;2023-02-24T05:43:59;26.67;;;13.95;;
26082;SDS011;13848;49.018;12.078;2023-02-24T05:46:27;26.15;;;13.32;;
26082;SDS011;13848;49.018;12.078;2023-02-24T05:48:55;28.70;;;13.93;;
26082;SDS011;13848;49.018;12.078;2023-02-24T05:51:22;26.35;;;13.25;;
26082;SDS011;13848;49.018;12.078;2023-02-24T05:53:49;28.27;;;14.57;;
26082;SDS011;13848;49.018;12.078;2023-02-24T05:56:15;26.63;;;14.45;;
26082;SDS011;13848;49.018;12.078;2023-02-24T05:58:41;25.35;;;14.15;;
26082;SDS011;13848;49.018;12.078;2023-02-24T06:01:10;27.00;;;13.77;;
26082;SDS011;13848;49.018;12.078;2023-02-24T06:03:37;28.33;;;13.73;;
26082;SDS011;13848;49.018;12.078;2023-02-24T06:06:04;29.38;;;14.05;;
26082;SDS011;13848;49.018;12.078;2023-02-24T06:08:30;27.00;;;13.15;;
26082;SDS011;13848;49.018;12.078;2023-02-24T06:10:57;26.27;;;13.98;;
26082;SDS011;13848;49.018;12.078;2023-02-24T06:13:23;27.17;;;14.50;;
26082;SDS011;13848;49.018;12.078;2023-02-24T06:15:53;34.47;;;14.48;;
26082;SDS011;13848;49.018;12.078;2023-02-24T06:18:19;24.92;;;13.88;;
26082;SDS011;13848;49.018;12.078;2023-02-24T06:20:45;31.48;;;14.40;;
26082;SDS011;13848;49.018;12.078;2023-02-24T06:23:12;30.27;;;15.43;;
26082;SDS011;13848;49.018;12.078;2023-02-24T06:25:38;24.83;;;13.90;;
26082;SDS011;13848;49.018;12.078;2023-02-24T06:28:05;29.67;;;14.77;;
26082;SDS011;13848;49.018;12.078;2023-02-24T06:30:30;31.42;;;14.68;;
26082;SDS011;13848;49.018;12.078;2023-02-24T06:32:56;28.88;;;14.32;;
26082;SDS011;13848;49.018;12.078;2023-02-24T06:35:22;25.08;;;12.85;;
26082;SDS011;13848;49.018;12.078;2023-02-24T06:37:48;31.77;;;16.95;;
26082;SDS011;13848;49.018;12.078;2023-02-24T06:40:16;26.65;;;15.07;;
26082;SDS011;13848;49.018;12.078;2023-02-24T06:42:45;28.58;;;14.52;;
26082;SDS011;13848;49.018;12.078;2023-02-24T06:45:13;31.05;;;14.73;;
26082;SDS011;13848;49.018;12.078;2023-02-24T06:47:39;30.92;;;14.23;;
26082;SDS011;13848;49.018;12.078;2023-02-24T06:50:07;25.52;;;14.35;;
26082;SDS011;13848;49.018;12.078;2023-02-24T06:52:34;30.00;;;14.80;;
26082;SDS011;13848;49.018;12.078;2023-02-24T06:55:00;29.70;;;14.70;;
26082;SDS011;13848;49.018;12.078;2023-02-24T06:57:28;33.05;;;15.75;;
26082;SDS011;13848;49.018;12.078;2023-02-24T06:59:55;34.10;;;15.18;;
26082;SDS011;13848;49.018;12.078;2023-02-24T07:02:21;31.20;;;15.50;;
26082;SDS011;13848;49.018;12.078;2023-02-24T07:04:47;30.98;;;13.88;;
26082;SDS011;13848;49.018;12.078;2023-02-24T07:07:13;32.40;;;14.38;;
26082;SDS011;13848;49.018;12.078;2023-02-24T07:09:39;27.35;;;14.23;;
26082;SDS011;13848;49.018;12.078;2023-02-24T07:12:05;29.90;;;13.85;;
26082;SDS011;13848;49.018;12.078;2023-02-24T07:14:32;29.65;;;13.32;;
26082;SDS011;13848;49.018;12.078;2023-02-24T07:16:58;32.45;;;15.43;;
26082;SDS011;13848;49.018;12.078;2023-02-24T07:19:25;27.63;;;13.15;;
26082;SDS011;13848;49.018;12.078;2023-02-24T07:21:54;23.90;;;13.25;;
26082;SDS011;13848;49.018;12.078;2023-02-24T07:24:21;27.15;;;13.60;;
26082;SDS011;13848;49.018;12.078;2023-02-24T07:26:47;31.05;;;14.35;;
26082;SDS011;13848;49.018;12.078;2023-02-24T07:29:13;33.97;;;16.05;;
26082;SDS011;13848;49.018;12.078;2023-02-24T07:31:40;27.00;;;14.48;;
26082;SDS011;13848;49.018;12.078;2023-02-24T07:34:06;29.40;;;13.63;;
26082;SDS011;13848;49.018;12.078;2023-02-24T07:36:32;26.38;;;14.00;;
26082;SDS011;13848;49.018;12.078;2023-02-24T07:38:58;30.48;;;13.82;;
26082;SDS011;13848;49.018;12.078;2023-02-24T07:41:24;27.15;;;13.93;;
26082;SDS011;13848;49.018;12.078;2023-02-24T07:43:51;25.27;;;13.40;;
26082;SDS011;13848;49.018;12.078;2023-02-24T07:46:19;28.80;;;14.77;;
26082;SDS011;13848;49.018;12.078;2023-02-24T07:48:48;26.20;;;13.60;;
26082;SDS011;13848;49.018;12.078;2023-02-24T07:51:16;26.48;;;13.18;;
26082;SDS011;13848;49.018;12.078;2023-02-24T07:53:43;28.23;;;13.57;;
26082;SDS011;13848;49.018;12.078;2023-02-24T07:56:13;29.55;;;13.45;;
26082;SDS011;13848;49.018;12.078;2023-02-24T07:58:40;31.48;;;14.27;;
26082;SDS011;13848;49.018;12.078;2023-02-24T08:01:05;28.27;;;13.77;;
26082;SDS011;13848;49.018;12.078;2023-02-24T08:03:31;26.48;;;13.40;;
26082;SDS011;13848;49.018;12.078;2023-02-24T08:05:59;24.65;;;13.43;;
26082;SDS011;13848;49.018;12.078;2023-02-24T08:08:25;27.90;;;13.38;;
26082;SDS011;13848;49.018;12.078;2023-02-24T08:10:51;23.05;;;12.65;;
26082;SDS011;13848;49.018;12.078;2023-02-24T08:13:17;25.17;;;13.60;;
26082;SDS011;13848;49.018;12.078;2023-02-24T08:15:43;23.50;;;13.10;;
26082;SDS011;13848;49.018;12.078;2023-02-24T08:18:08;23.58;;;12.75;;
26082;SDS011;13848;49.018;12.078;2023-02-24T08:20:34;25.13;;;12.82;;
26082;SDS011;13848;49.018;12.078;2023-02-24T08:23:02;24.25;;;13.43;;
26082;SDS011;13848;49.018;12.078;2023-02-24T08:25:28;25.45;;;13.27;;
26082;SDS011;13848;49.018;12.078;2023-02-24T08:27:54;23.85;;;13.20;;
26082;SDS011;13848;49.018;12.078;2023-02-24T08:30:20;22.92;;;14.10;;
26082;SDS011;13848;49.018;12.078;2023-02-24T08:32:47;23.40;;;12.88;;
26082;SDS011;13848;49.018;12.078;2023-02-24T08:35:16;26.13;;;13.02;;
26082;SDS011;13848;49.018;12.078;2023-02-24T08:37:44;24.60;;;13.00;;
26082;SDS011;13848;49.018;12.078;2023-02-24T08:40:17;27.67;;;14.40;;
26082;SDS011;13848;49.018;12.078;2023-02-24T08:42:45;24.38;;;13.05;;
26082;SDS011;13848;49.018;12.078;2023-02-24T08:45:11;27.42;;;14.50;;
26082;SDS011;13848;49.018;12.078;2023-02-24T08:47:37;25.00;;;14.25;;
26082;SDS011;13848;49.018;12.078;2023-02-24T08:50:03;24.73;;;14.27;;
26082;SDS011;13848;49.018;12.078;2023-02-24T08:52:29;28.63;;;15.20;;
26082;SDS011;13848;49.018;12.078;2023-02-24T08:54:55;28.92;;;14.20;;
26082;SDS011;13848;49.018;12.078;2023-02-24T08:57:23;27.67;;;14.15;;
26082;SDS011;13848;49.018;12.078;2023-02-24T08:59:49;31.38;;;14.98;;
26082;SDS011;13848;49.018;12.078;2023-02-24T09:02:15;27.60;;;14.70;;
26082;SDS011;13848;49.018;12.078;2023-02-24T09:04:43;27.83;;;15.23;;
26082;SDS011;13848;49.018;12.078;2023-02-24T09:07:11;28.00;;;15.25;;
26082;SDS011;13848;49.018;12.078;2023-02-24T09:09:38;29.92;;;15.90;;
26082;SDS011;13848;49.018;12.078;2023-02-24T09:12:04;26.45;;;14.35;;
26082;SDS011;13848;49.018;12.078;2023-02-24T09:14:32;25.38;;;13.95;;
26082;SDS011;13848;49.018;12.078;2023-02-24T09:16:59;27.05;;;13.80;;
26082;SDS011;13848;49.018;12.078;2023-02-24T09:19:24;24.10;;;13.43;;
26082;SDS011;13848;49.018;12.078;2023-02-24T09:21:50;24.52;;;14.23;;
26082;SDS011;13848;49.018;12.078;2023-02-24T09:24:16;25.52;;;13.75;;
26082;SDS011;13848;49.018;12.078;2023-02-24T09:26:43;24.38;;;13.57;;
26082;SDS011;13848;49.018;12.078;2023-02-24T09:29:09;26.45;;;13.40;;
26082;SDS011;13848;49.018;12.078;2023-02-24T09:31:37;21.70;;;12.85;;
26082;SDS011;13848;49.018;12.078;2023-02-24T09:34:02;26.95;;;13.07;;
26082;SDS011;13848;49.018;12.078;2023-02-24T09:36:28;23.00;;;11.95;;
26082;SDS011;13848;49.018;12.078;2023-02-24T09:38:55;25.90;;;13.23;;
26082;SDS011;13848;49.018;12.078;2023-02-24T09:41:27;19.67;;;11.07;;
26082;SDS011;13848;49.018;12.078;2023-02-24T09:43:58;21.48;;;10.75;;
26082;SDS011;13848;49.018;12.078;2023-02-24T09:46:31;18.58;;;10.88;;
26082;SDS011;13848;49.018;12.078;2023-02-24T09:49:11;21.80;;;11.02;;
26082;SDS011;13848;49.018;12.078;2023-02-24T09:51:41;20.65;;;10.85;;
26082;SDS011;13848;49.018;12.078;2023-02-24T09:54:10;23.60;;;11.88;;
26082;SDS011;13848;49.018;12.078;2023-02-24T09:56:40;22.70;;;11.35;;
26082;SDS011;13848;49.018;12.078;2023-02-24T09:59:11;20.67;;;10.88;;
26082;SDS011;13848;49.018;12.078;2023-02-24T10:01:45;17.83;;;10.13;;
26082;SDS011;13848;49.018;12.078;2023-02-24T10:04:21;18.63;;;9.63;;
26082;SDS011;13848;49.018;12.078;2023-02-24T10:07:00;18.55;;;10.20;;
26082;SDS011;13848;49.018;12.078;2023-02-24T10:09:29;18.40;;;10.98;;
26082;SDS011;13848;49.018;12.078;2023-02-24T10:12:01;22.40;;;11.57;;
26082;SDS011;13848;49.018;12.078;2023-02-24T10:14:33;17.77;;;9.75;;
26082;SDS011;13848;49.018;12.078;2023-02-24T10:19:34;17.92;;;10.00;;
26082;SDS011;13848;49.018;12.078;2023-02-24T10:22:02;22.92;;;13.13;;
26082;SDS011;13848;49.018;12.078;2023-02-24T10:24:33;22.05;;;11.23;;
26082;SDS011;13848;49.018;12.078;2023-02-24T10:27:05;15.93;;;9.45;;
26082;SDS011;13848;49.018;12.078;2023-02-24T10:29:40;15.40;;;9.50;;
26082;SDS011;13848;49.018;12.078;2023-02-24T10:32:20;18.63;;;10.23;;
26082;SDS011;13848;49.018;12.078;2023-02-24T10:34:51;18.83;;;9.57;;
26082;SDS011;13848;49.018;12.078;2023-02-24T10:37:18;18.13;;;9.30;;
26082;SDS011;13848;49.018;12.078;2023-02-24T10:39:46;15.88;;;9.18;;
26082;SDS011;13848;49.018;12.078;2023-02-24T10:42:12;15.18;;;8.70;;
26082;SDS011;13848;49.018;12.078;2023-02-24T10:44:48;16.67;;;9.52;;
26082;SDS011;13848;49.018;12.078;2023-02-24T10:47:15;16.05;;;9.40;;
26082;SDS011;13848;49.018;12.078;2023-02-24T10:49:44;17.00;;;8.23;;
26082;SDS011;13848;49.018;12.078;2023-02-24T10:52:11;15.15;;;8.40;;
26082;SDS011;13848;49.018;12.078;2023-02-24T10:54:38;19.35;;;8.40;;
26082;SDS011;13848;49.018;12.078;2023-02-24T10:57:04;21.08;;;9.18;;
26082;SDS011;13848;49.018;12.078;2023-02-24T10:59:45;15.25;;;8.40;;
26082;SDS011;13848;49.018;12.078;2023-02-24T11:02:15;11.57;;;7.45;;
26082;SDS011;13848;49.018;12.078;2023-02-24T11:04:44;18.35;;;8.40;;
26082;SDS011;13848;49.018;12.078;2023-02-24T11:07:11;18.85;;;8.15;;
26082;SDS011;13848;49.018;12.078;2023-02-24T11:09:39;18.58;;;11.10;;
26082;SDS011;13848;49.018;12.078;2023-02-24T11:12:09;15.20;;;8.88;;
26082;SDS011;13848;49.018;12.078;2023-02-24T11:14:47;16.08;;;7.93;;
26082;SDS011;13848;49.018;12.078;2023-02-24T11:17:18;15.45;;;7.90;;
26082;SDS011;13848;49.018;12.078;2023-02-24T11:19:48;12.40;;;6.88;;
26082;SDS011;13848;49.018;12.078;2023-02-24T11:22:21;13.10;;;7.32;;
26082;SDS011;13848;49.018;12.078;2023-02-24T11:24:49;16.00;;;8.00;;
26082;SDS011;13848;49.018;12.078;2023-02-24T11:27:16;14.07;;;7.90;;
26082;SDS011;13848;49.018;12.078;2023-02-24T11:29:50;14.20;;;7.60;;
26082;SDS011;13848;49.018;12.078;2023-02-24T11:32:31;15.20;;;7.82;;
26082;SDS011;13848;49.018;12.078;2023-02-24T11:35:15;16.02;;;8.10;;
26082;SDS011;13848;49.018;12.078;2023-02-24T11:37:48;13.93;;;7.57;;
26082;SDS011;13848;49.018;12.078;2023-02-24T11:40:24;13.07;;;7.78;;
26082;SDS011;13848;49.018;12.078;2023-02-24T11:42:53;15.88;;;8.25;;
26082;SDS011;13848;49.018;12.078;2023-02-24T11:45:27;13.98;;;8.00;;
26082;SDS011;13848;49.018;12.078;2023-02-24T11:47:57;16.50;;;8.23;;
26082;SDS011;13848;49.018;12.078;2023-02-24T11:50:40;17.00;;;8.75;;
26082;SDS011;13848;49.018;12.078;2023-02-24T11:53:16;18.02;;;9.43;;
26082;SDS011;13848;49.018;12.078;2023-02-24T11:56:00;21.52;;;9.43;;
26082;SDS011;13848;49.018;12.078;2023-02-24T11:58:30;18.90;;;10.18;;
26082;SDS011;13848;49.018;12.078;2023-02-24T12:01:06;22.00;;;9.68;;
26082;SDS011;13848;49.018;12.078;2023-02-24T12:03:38;19.77;;;10.02;;
26082;SDS011;13848;49.018;12.078;2023-02-24T12:06:13;22.08;;;10.55;;
26082;SDS011;13848;49.018;12.078;2023-02-24T12:08:44;20.23;;;10.85;;
26082;SDS011;13848;49.018;12.078;2023-02-24T12:11:16;18.90;;;10.20;;
26082;SDS011;13848;49.018;12.078;2023-02-24T12:13:51;19.23;;;9.68;;
26082;SDS011;13848;49.018;12.078;2023-02-24T12:16:24;21.48;;;9.70;;
26082;SDS011;13848;49.018;12.078;2023-02-24T12:18:56;17.35;;;9.45;;
26082;SDS011;13848;49.018;12.078;2023-02-24T12:21:30;18.73;;;9.85;;
26082;SDS011;13848;49.018;12.078;2023-02-24T12:24:00;17.35;;;8.65;;
26082;SDS011;13848;49.018;12.078;2023-02-24T12:26:29;19.63;;;9.40;;
26082;SDS011;13848;49.018;12.078;2023-02-24T12:29:06;19.02;;;9.07;;
26082;SDS011;13848;49.018;12.078;2023-02-24T12:31:46;15.38;;;8.95;;
26082;SDS011;13848;49.018;12.078;2023-02-24T12:34:22;17.90;;;9.35;;
26082;SDS011;13848;49.018;12.078;2023-02-24T12:37:05;20.20;;;9.35;;
26082;SDS011;13848;49.018;12.078;2023-02-24T12:39:48;19.40;;;10.07;;
26082;SDS011;13848;49.018;12.078;2023-02-24T12:42:27;21.40;;;9.90;;
26082;SDS011;13848;49.018;12.078;2023-02-24T12:44:59;19.08;;;8.60;;
26082;SDS011;13848;49.018;12.078;2023-02-24T12:47:36;20.98;;;9.18;;
26082;SDS011;13848;49.018;12.078;2023-02-24T12:50:12;19.83;;;9.43;;
26082;SDS011;13848;49.018;12.078;2023-02-24T12:52:59;19.08;;;9.98;;
26082;SDS011;13848;49.018;12.078;2023-02-24T12:55:34;22.83;;;8.70;;
26082;SDS011;13848;49.018;12.078;2023-02-24T12:58:07;17.67;;;9.20;;
26082;SDS011;13848;49.018;12.078;2023-02-24T13:00:41;20.85;;;8.43;;
26082;SDS011;13848;49.018;12.078;2023-02-24T13:03:20;17.70;;;9.30;;
26082;SDS011;13848;49.018;12.078;2023-02-24T13:05:58;16.90;;;8.45;;
26082;SDS011;13848;49.018;12.078;2023-02-24T13:08:33;17.52;;;9.40;;
26082;SDS011;13848;49.018;12.078;2023-02-24T13:11:11;25.17;;;8.80;;
26082;SDS011;13848;49.018;12.078;2023-02-24T13:13:43;13.60;;;7.93;;
26082;SDS011;13848;49.018;12.078;2023-02-24T13:16:13;11.50;;;5.90;;
26082;SDS011;13848;49.018;12.078;2023-02-24T13:18:39;11.23;;;6.25;;
26082;SDS011;13848;49.018;12.078;2023-02-24T13:21:06;14.20;;;6.53;;
26082;SDS011;13848;49.018;12.078;2023-02-24T13:23:39;19.48;;;7.45;;
26082;SDS011;13848;49.018;12.078;2023-02-24T13:28:32;12.85;;;7.15;;
26082;SDS011;13848;49.018;12.078;2023-02-24T13:31:01;15.80;;;7.75;;
26082;SDS011;13848;49.018;12.078;2023-02-24T13:33:29;15.10;;;7.20;;
26082;SDS011;13848;49.018;12.078;2023-02-24T13:36:07;14.65;;;7.28;;
26082;SDS011;13848;49.018;12.078;2023-02-24T13:38:38;18.23;;;7.63;;
26082;SDS011;13848;49.018;12.078;2023-02-24T13:41:07;15.95;;;8.48;;
26082;SDS011;13848;49.018;12.078;2023-02-24T13:43:52;16.10;;;8.25;;
26082;SDS011;13848;49.018;12.078;2023-02-24T13:46:19;16.42;;;8.40;;
26082;SDS011;13848;49.018;12.078;2023-02-24T13:48:51;15.60;;;7.88;;
26082;SDS011;13848;49.018;12.078;2023-02-24T13:51:35;17.08;;;8.50;;
26082;SDS011;13848;49.018;12.078;2023-02-24T13:54:22;21.23;;;8.25;;
26082;SDS011;13848;49.018;12.078;2023-02-24T13:57:00;12.52;;;8.25;;
26082;SDS011;13848;49.018;12.078;2023-02-24T13:59:46;15.85;;;8.45;;
26082;SDS011;13848;49.018;12.078;2023-02-24T14:02:24;14.93;;;7.28;;
26082;SDS011;13848;49.018;12.078;2023-02-24T14:04:53;17.05;;;8.07;;
26082;SDS011;13848;49.018;12.078;2023-02-24T14:07:20;17.02;;;8.13;;
26082;SDS011;13848;49.018;12.078;2023-02-24T14:09:51;16.65;;;8.35;;
26082;SDS011;13848;49.018;12.078;2023-02-24T14:12:19;17.33;;;8.65;;
26082;SDS011;13848;49.018;12.078;2023-02-24T14:14:48;24.33;;;10.13;;
26082;SDS011;13848;49.018;12.078;2023-02-24T14:17:18;17.42;;;8.65;;
26082;SDS011;13848;49.018;12.078;2023-02-24T14:19:46;17.27;;;8.52;;
26082;SDS011;13848;49.018;12.078;2023-02-24T14:22:13;19.10;;;8.68;;
26082;SDS011;13848;49.018;12.078;2023-02-24T14:24:44;16.25;;;8.32;;
26082;SDS011;13848;49.018;12.078;2023-02-24T14:27:14;14.68;;;8.02;;
26082;SDS011;13848;49.018;12.078;2023-02-24T14:29:46;14.43;;;7.63;;
26082;SDS011;13848;49.018;12.078;2023-02-24T14:32:17;22.25;;;8.80;;